Time;durP1;ratioP1;P1;durP2;ratioP2;P2;SDS_P1;SDS_P2;PMS_P1;PMS_P2;Temp;Humidity;BMP_temperature;BMP_pressure;BME280_temperature;BME280_humidity;BME280_pressure;Samples;Min_cycle;Max_cycle;Signal;HPM_P1;HPM_P2
2022/02/13 00:00:22;;;;;;;5.40;3.60;;;;;;;6.02;63.07;101369.53;5073377;28;20028;-38
2022/02/13 00:02:48;;;;;;;5.93;3.72;;;;;;;6.16;61.76;101376.25;5073700;28;20397;-37
2022/02/13 00:05:13;;;;;;;6.63;3.53;;;;;;;5.83;62.56;101378.19;5074026;28;20058;-38
2022/02/13 00:07:39;;;;;;;7.20;3.70;;;;;;;6.03;62.05;101373.00;5073333;28;20028;-39
2022/02/13 00:10:07;;;;;;;5.20;3.58;;;;;;;6.70;59.85;101375.91;5073710;28;20028;-39
2022/02/13 00:12:32;;;;;;;7.85;3.75;;;;;;;6.34;60.37;101372.94;5073844;28;20031;-36
2022/02/13 00:14:58;;;;;;;8.40;3.60;;;;;;;6.12;60.44;101381.94;5073457;28;20024;-39
2022/02/13 00:17:23;;;;;;;7.32;3.40;;;;;;;6.17;60.53;101370.00;5073499;28;20025;-38
2022/02/13 00:19:49;;;;;;;6.75;3.22;;;;;;;5.76;61.18;101377.03;5073100;28;20094;-37
2022/02/13 00:22:17;;;;;;;6.85;3.40;;;;;;;5.82;61.44;101373.03;5073055;28;20039;-37
2022/02/13 00:24:45;;;;;;;5.72;3.30;;;;;;;5.76;61.39;101371.75;5073217;28;20052;-37
2022/02/13 00:27:11;;;;;;;6.60;3.30;;;;;;;5.66;62.04;101371.72;5072810;28;20114;-38
2022/02/13 00:29:36;;;;;;;7.22;3.50;;;;;;;6.03;61.61;101368.53;5073127;28;20028;-38
2022/02/13 00:32:03;;;;;;;5.45;3.72;;;;;;;6.13;61.20;101365.09;5073158;28;20456;-38
2022/02/13 00:34:29;;;;;;;8.05;3.90;;;;;;;5.62;63.24;101380.88;5072469;28;20117;-39
2022/02/13 00:36:54;;;;;;;6.03;3.55;;;;;;;5.68;62.48;101369.78;5072346;28;20025;-38
2022/02/13 00:39:19;;;;;;;8.00;3.90;;;;;;;5.57;63.15;101366.38;5070289;28;20036;-37
2022/02/13 00:41:45;;;;;;;12.43;3.75;;;;;;;5.36;63.93;101387.53;5071868;28;20024;-38
2022/02/13 00:44:10;;;;;;;5.57;3.90;;;;;;;5.35;63.89;101386.69;5072343;28;20020;-37
2022/02/13 00:46:36;;;;;;;5.95;3.78;;;;;;;5.11;64.76;101383.47;5072940;28;20032;-38
2022/02/13 00:49:02;;;;;;;8.05;4.20;;;;;;;5.34;63.44;101376.25;5072510;28;20024;-38
2022/02/13 00:51:27;;;;;;;6.13;3.78;;;;;;;5.17;64.35;101375.88;5072923;28;20425;-37
2022/02/13 00:53:52;;;;;;;8.57;4.25;;;;;;;5.76;62.25;101371.75;5072426;28;20090;-38
2022/02/13 00:56:18;;;;;;;6.90;3.85;;;;;;;5.39;63.35;101372.28;5071675;28;20028;-37
2022/02/13 00:58:46;;;;;;;8.68;4.50;;;;;;;5.24;64.29;101376.22;5071837;28;20029;-37
2022/02/13 01:01:12;;;;;;;6.22;4.10;;;;;;;5.44;64.02;101364.78;5071982;28;20103;-38
2022/02/13 01:03:37;;;;;;;7.47;4.20;;;;;;;5.44;63.80;101362.13;5072157;28;20376;-38
2022/02/13 01:06:03;;;;;;;8.13;4.25;;;;;;;5.53;63.95;101370.25;5071462;28;20078;-38
2022/02/13 01:08:29;;;;;;;8.32;4.57;;;;;;;5.66;62.59;101376.16;5070928;28;20032;-38
2022/02/13 01:10:55;;;;;;;6.85;4.20;;;;;;;5.71;62.50;101373.94;5072059;28;20503;-38
2022/02/13 01:13:20;;;;;;;7.78;4.22;;;;;;;5.57;63.01;101374.31;5072276;28;20106;-38
2022/02/13 01:15:46;;;;;;;7.00;4.38;;;;;;;5.63;63.12;101376.41;5071911;28;20029;-38
2022/02/13 01:18:12;;;;;;;7.85;4.70;;;;;;;5.44;64.53;101363.94;5071783;28;20054;-38
2022/02/13 01:20:38;;;;;;;10.27;5.20;;;;;;;5.28;65.72;101365.25;5072253;28;20025;-38
2022/02/13 01:23:03;;;;;;;7.30;4.63;;;;;;;5.44;65.14;101359.50;5071752;28;20702;-39
2022/02/13 01:25:28;;;;;;;8.65;4.70;;;;;;;5.29;65.65;101356.38;5071912;28;20520;-38
2022/02/13 01:27:54;;;;;;;7.32;4.55;;;;;;;4.88;66.54;101358.03;5071707;28;20020;-38
2022/02/13 01:30:19;;;;;;;7.68;4.72;;;;;;;4.94;66.23;101351.41;5071842;28;20029;-38
2022/02/13 01:32:45;;;;;;;9.90;4.45;;;;;;;5.10;65.82;101350.94;5071466;28;20032;-38
2022/02/13 01:35:10;;;;;;;8.52;4.72;;;;;;;5.23;64.66;101340.19;5070190;28;20035;-38
2022/02/13 01:37:36;;;;;;;9.07;4.70;;;;;;;5.31;64.96;101347.47;5070931;28;20035;-38
2022/02/13 01:40:02;;;;;;;9.52;4.53;;;;;;;4.95;65.00;101355.72;5071084;28;20409;-37
2022/02/13 01:42:28;;;;;;;6.80;4.70;;;;;;;4.98;65.59;101347.53;5071371;28;20031;-37
2022/02/13 01:44:53;;;;;;;8.80;4.45;;;;;;;4.86;65.76;101343.28;5071004;28;20032;-38
2022/02/13 01:47:19;;;;;;;6.70;4.50;;;;;;;4.83;65.68;101348.81;5069797;28;20028;-37
2022/02/13 01:49:44;;;;;;;10.45;4.30;;;;;;;4.54;66.59;101354.69;5070884;28;20036;-37
2022/02/13 01:52:10;;;;;;;8.85;4.72;;;;;;;4.82;65.46;101339.25;5071169;28;20085;-37
2022/02/13 01:54:35;;;;;;;8.48;4.47;;;;;;;5.23;64.38;101358.69;5069953;28;20028;-38
2022/02/13 01:57:02;;;;;;;7.05;4.15;;;;;;;5.26;64.02;101346.06;5071119;28;20024;-38
2022/02/13 01:59:27;;;;;;;7.65;4.70;;;;;;;5.43;63.85;101343.81;5071402;28;20028;-38
2022/02/13 02:01:53;;;;;;;8.10;4.57;;;;;;;5.57;62.80;101340.81;5069943;28;20024;-38
2022/02/13 02:04:19;;;;;;;6.95;4.15;;;;;;;5.42;63.72;101339.47;5071174;28;20478;-37
2022/02/13 02:06:44;;;;;;;9.95;4.35;;;;;;;5.16;64.38;101341.69;5071096;28;20048;-38
2022/02/13 02:09:10;;;;;;;7.72;4.38;;;;;;;4.98;64.71;101355.44;5069908;28;20024;-37
2022/02/13 02:11:35;;;;;;;7.22;3.90;;;;;;;4.99;64.93;101345.72;5071113;28;20444;-37
2022/02/13 02:14:01;;;;;;;9.95;4.20;;;;;;;4.63;66.15;101353.94;5071285;28;20036;-38
2022/02/13 02:16:26;;;;;;;8.80;4.43;;;;;;;4.64;66.44;101344.22;5070412;28;20043;-38
2022/02/13 02:18:52;;;;;;;9.05;3.92;;;;;;;4.85;65.79;101352.16;5069904;28;20036;-38
2022/02/13 02:21:17;;;;;;;8.10;4.20;;;;;;;4.85;65.91;101345.06;5071182;28;20033;-38
2022/02/13 02:23:43;;;;;;;10.05;4.30;;;;;;;5.73;62.88;101347.41;5071181;28;20442;-38
2022/02/13 02:26:09;;;;;;;9.90;4.63;;;;;;;5.13;64.19;101350.69;5071135;28;20020;-38
2022/02/13 02:28:34;;;;;;;7.47;3.95;;;;;;;5.23;64.52;101341.03;5070839;28;20025;-38
2022/02/13 02:30:59;;;;;;;8.70;4.55;;;;;;;5.27;64.11;101344.25;5070834;28;20032;-37
2022/02/13 02:33:25;;;;;;;7.88;3.90;;;;;;;4.95;65.04;101337.25;5071255;28;20039;-37
2022/02/13 02:35:50;;;;;;;8.75;4.50;;;;;;;5.26;64.28;101355.78;5071455;28;20025;-37
2022/02/13 02:38:16;;;;;;;7.65;4.60;;;;;;;5.60;63.27;101347.66;5071220;28;20051;-37
2022/02/13 02:40:42;;;;;;;8.85;4.00;;;;;;;5.66;62.17;101345.28;5071332;28;20085;-38
2022/02/13 02:43:07;;;;;;;8.48;4.43;;;;;;;5.32;63.69;101355.25;5070264;28;20381;-37
2022/02/13 02:45:33;;;;;;;8.75;3.97;;;;;;;5.04;64.60;101362.03;5071106;28;20024;-37
2022/02/13 02:47:58;;;;;;;12.85;4.65;;;;;;;5.20;64.50;101369.50;5071297;28;20031;-37
2022/02/13 02:50:24;;;;;;;8.73;3.97;;;;;;;5.11;64.58;101367.63;5070987;28;20033;-37
2022/02/13 02:52:49;;;;;;;7.93;4.10;;;;;;;5.11;64.73;101373.75;5071209;28;20035;-37
2022/02/13 02:55:15;;;;;;;7.45;3.97;;;;;;;5.19;64.74;101378.38;5070957;28;20454;-37
2022/02/13 02:57:40;;;;;;;9.30;3.97;;;;;;;5.16;64.29;101370.72;5070828;28;20029;-37
2022/02/13 03:00:06;;;;;;;9.73;4.22;;;;;;;5.18;64.70;101374.06;5071189;28;20029;-37
2022/02/13 03:02:34;;;;;;;8.52;4.53;;;;;;;5.43;63.67;101381.59;5070995;28;20036;-38
2022/02/13 03:05:00;;;;;;;7.95;4.15;;;;;;;5.09;64.33;101376.50;5070885;28;20615;-37
2022/02/13 03:07:26;;;;;;;12.32;4.50;;;;;;;5.13;64.71;101381.53;5071277;28;20021;-38
2022/02/13 03:09:51;;;;;;;7.38;4.18;;;;;;;5.18;64.27;101382.84;5071193;28;20067;-37
2022/02/13 03:12:17;;;;;;;7.45;4.55;;;;;;;5.04;64.80;101377.84;5070989;28;20020;-37
2022/02/13 03:14:42;;;;;;;6.72;4.10;;;;;;;5.07;64.74;101377.59;5069794;28;20032;-38
2022/02/13 03:17:08;;;;;;;7.53;4.05;;;;;;;4.93;65.26;101386.69;5070893;28;20029;-38
2022/02/13 03:19:34;;;;;;;10.23;4.30;;;;;;;5.01;65.09;101383.41;5070952;28;20021;-38
2022/02/13 03:21:59;;;;;;;7.18;3.92;;;;;;;5.07;65.11;101381.06;5070962;28;20066;-38
2022/02/13 03:24:25;;;;;;;9.15;4.20;;;;;;;4.94;65.02;101379.59;5070749;28;20021;-38
2022/02/13 03:26:50;;;;;;;8.30;3.97;;;;;;;5.01;65.31;101388.69;5070584;28;20028;-38
2022/02/13 03:29:16;;;;;;;6.85;3.95;;;;;;;4.85;65.64;101382.00;5072733;28;20056;-38
2022/02/13 03:31:42;;;;;;;11.35;4.25;;;;;;;4.88;65.83;101386.22;5074883;28;20020;-37
2022/02/13 03:34:07;;;;;;;8.52;4.53;;;;;;;5.08;64.76;101379.25;5074940;28;20043;-38
2022/02/13 03:36:33;;;;;;;8.00;4.75;;;;;;;5.08;65.23;101382.75;5075047;28;20078;-37
2022/02/13 03:38:58;;;;;;;9.35;5.28;;;;;;;5.15;65.47;101383.06;5074620;28;20012;-37
2022/02/13 03:41:24;;;;;;;9.02;5.45;;;;;;;5.16;65.01;101387.41;5074587;28;20024;-37
2022/02/13 03:43:49;;;;;;;9.45;5.07;;;;;;;5.64;63.60;101380.75;5075092;28;20082;-37
2022/02/13 03:46:15;;;;;;;8.63;5.43;;;;;;;5.57;63.57;101390.97;5074700;28;20016;-37
2022/02/13 03:48:40;;;;;;;9.50;5.70;;;;;;;5.27;64.51;101383.84;5073611;28;20074;-37
2022/02/13 03:51:05;;;;;;;8.50;5.25;;;;;;;5.39;63.72;101390.75;5074625;28;20463;-37
2022/02/13 03:53:31;;;;;;;10.02;6.07;;;;;;;5.54;63.21;101382.47;5074740;28;20024;-37
2022/02/13 03:55:56;;;;;;;9.30;5.13;;;;;;;5.48;63.41;101376.78;5074454;28;20028;-37
2022/02/13 03:58:22;;;;;;;9.95;5.07;;;;;;;5.69;62.60;101386.44;5074265;28;20024;-37
2022/02/13 04:00:47;;;;;;;11.10;5.50;;;;;;;5.22;63.67;101386.06;5074922;28;20030;-37
2022/02/13 04:03:13;;;;;;;11.45;5.43;;;;;;;5.36;63.64;101391.00;5074551;28;20039;-38
2022/02/13 04:05:38;;;;;;;9.40;5.43;;;;;;;5.34;63.91;101386.81;5074365;28;20060;-37
2022/02/13 04:08:04;;;;;;;9.30;5.38;;;;;;;5.68;62.41;101390.91;5074420;28;20027;-37
2022/02/13 04:10:29;;;;;;;11.32;5.35;;;;;;;5.58;62.78;101381.25;5074171;28;20051;-37
2022/02/13 04:12:55;;;;;;;8.88;5.30;;;;;;;5.39;62.76;101392.56;5074438;28;20031;-38
2022/02/13 04:15:20;;;;;;;9.95;5.63;;;;;;;5.40;63.26;101388.94;5074269;28;20028;-37
2022/02/13 04:17:46;;;;;;;10.45;5.60;;;;;;;5.37;63.01;101395.31;5074088;28;20024;-37
2022/02/13 04:20:11;;;;;;;9.90;5.13;;;;;;;5.27;63.96;101391.75;5074239;28;20139;-38
2022/02/13 04:22:37;;;;;;;9.73;5.57;;;;;;;5.12;64.51;101385.13;5074094;28;20400;-38
2022/02/13 04:25:03;;;;;;;13.32;5.50;;;;;;;5.13;64.51;101392.94;5073926;28;20032;-38
2022/02/13 04:27:29;;;;;;;9.77;5.38;;;;;;;5.24;64.07;101392.03;5074331;28;20016;-37
2022/02/13 04:29:54;;;;;;;9.38;5.43;;;;;;;5.28;63.56;101396.94;5073955;28;20369;-37
2022/02/13 04:32:20;;;;;;;8.43;5.18;;;;;;;5.23;63.80;101395.63;5073678;28;20032;-38
2022/02/13 04:34:46;;;;;;;9.65;5.55;;;;;;;5.22;63.56;101394.81;5072901;28;20090;-38
2022/02/13 04:37:14;;;;;;;8.20;4.97;;;;;;;5.17;63.63;101404.06;5073417;28;20020;-38
2022/02/13 04:39:40;;;;;;;14.32;5.35;;;;;;;5.31;62.83;101395.00;5073646;28;20044;-37
2022/02/13 04:42:06;;;;;;;8.90;5.28;;;;;;;5.02;63.76;101401.72;5072349;28;20025;-38
2022/02/13 04:44:31;;;;;;;11.30;5.30;;;;;;;5.13;63.57;101400.84;5071815;28;20063;-37
2022/02/13 04:46:57;;;;;;;9.48;5.13;;;;;;;5.24;62.82;101395.50;5074052;28;20024;-38
2022/02/13 04:49:22;;;;;;;9.00;5.18;;;;;;;5.14;63.60;101399.03;5073661;28;20028;-38
2022/02/13 04:51:48;;;;;;;9.77;5.03;;;;;;;5.31;62.37;101401.09;5073122;28;20025;-38
2022/02/13 04:54:13;;;;;;;9.63;5.10;;;;;;;5.61;61.35;101394.19;5072840;28;20040;-38
2022/02/13 04:56:39;;;;;;;12.32;5.47;;;;;;;5.61;60.92;101392.38;5072192;28;20029;-38
2022/02/13 04:59:04;;;;;;;8.57;5.30;;;;;;;5.54;61.16;101391.25;5072917;28;20465;-38
2022/02/13 05:01:29;;;;;;;9.45;5.53;;;;;;;5.51;61.78;101390.69;5073302;28;20094;-37
2022/02/13 05:03:56;;;;;;;11.25;5.32;;;;;;;5.21;62.50;101401.03;5072809;28;20039;-38
2022/02/13 05:06:22;;;;;;;10.55;5.32;;;;;;;5.44;62.23;101393.00;5072653;28;20184;-38
2022/02/13 05:08:47;;;;;;;9.70;5.72;;;;;;;5.38;62.33;101399.63;5073217;28;20033;-37
2022/02/13 05:11:13;;;;;;;9.18;5.00;;;;;;;5.14;62.84;101397.25;5071829;28;20427;-38
2022/02/13 05:13:38;;;;;;;12.00;5.85;;;;;;;5.31;62.09;101390.53;5073367;28;20082;-37
2022/02/13 05:16:04;;;;;;;10.32;5.20;;;;;;;5.34;62.59;101406.13;5072958;28;20032;-37
2022/02/13 05:18:30;;;;;;;12.05;5.80;;;;;;;5.12;63.10;101395.69;5072707;28;20143;-37
2022/02/13 05:20:55;;;;;;;11.82;5.95;;;;;;;5.07;63.27;101398.72;5072890;28;20102;-37
2022/02/13 05:23:20;;;;;;;11.38;5.90;;;;;;;4.99;64.20;101388.81;5072628;28;20469;-38
2022/02/13 05:25:46;;;;;;;8.73;5.18;;;;;;;4.96;63.78;101391.69;5072876;28;20083;-38
2022/02/13 05:28:12;;;;;;;10.45;5.53;;;;;;;4.99;63.61;101406.41;5072571;28;20039;-38
2022/02/13 05:30:37;;;;;;;14.27;5.78;;;;;;;5.19;62.70;101400.31;5072487;28;20452;-37
2022/02/13 05:33:03;;;;;;;11.00;5.75;;;;;;;5.38;62.12;101398.78;5072484;28;20146;-37
2022/02/13 05:35:28;;;;;;;9.07;5.22;;;;;;;5.14;62.97;101401.69;5072742;28;20028;-37
2022/02/13 05:37:54;;;;;;;10.40;5.47;;;;;;;5.25;62.63;101399.84;5072377;28;20043;-38
2022/02/13 05:40:19;;;;;;;11.80;5.97;;;;;;;5.22;62.27;101397.44;5072123;28;20106;-38
2022/02/13 05:42:45;;;;;;;9.32;5.40;;;;;;;5.03;62.76;101397.31;5072113;28;20035;-38
2022/02/13 05:45:10;;;;;;;11.05;5.43;;;;;;;5.25;62.01;101401.63;5072275;28;20456;-38
2022/02/13 05:47:37;;;;;;;10.00;5.35;;;;;;;5.10;62.54;101398.44;5072238;28;20021;-38
2022/02/13 05:50:02;;;;;;;9.82;5.18;;;;;;;5.22;62.08;101402.72;5072222;28;20499;-38
2022/02/13 05:52:28;;;;;;;11.18;5.25;;;;;;;5.06;62.56;101399.66;5072257;28;20062;-38
2022/02/13 05:54:53;;;;;;;10.95;4.78;;;;;;;5.12;62.19;101400.97;5072049;28;20451;-38
2022/02/13 05:57:19;;;;;;;8.52;4.93;;;;;;;5.05;61.98;101406.75;5072001;28;20029;-39
2022/02/13 05:59:44;;;;;;;12.57;6.32;;;;;;;5.27;61.53;101410.25;5072262;28;20042;-38
2022/02/13 06:02:10;;;;;;;8.90;4.68;;;;;;;5.49;60.60;101410.13;5072017;28;20472;-38
2022/02/13 06:04:35;;;;;;;10.02;5.20;;;;;;;5.42;60.60;101408.13;5072170;28;20025;-38
2022/02/13 06:07:00;;;;;;;10.27;4.82;;;;;;;5.55;60.44;101405.28;5071855;28;20040;-38
2022/02/13 06:09:26;;;;;;;8.27;4.90;;;;;;;5.52;60.26;101409.03;5071849;28;20020;-38
2022/02/13 06:11:51;;;;;;;9.35;4.75;;;;;;;5.27;60.97;101407.59;5071914;28;20032;-38
2022/02/13 06:14:17;;;;;;;12.43;5.40;;;;;;;5.05;61.81;101408.56;5071718;28;20444;-37
2022/02/13 06:16:42;;;;;;;10.10;4.93;;;;;;;4.94;62.69;101404.16;5070781;28;20024;-38
2022/02/13 06:19:08;;;;;;;13.18;5.47;;;;;;;4.88;63.02;101407.31;5070857;28;20028;-37
2022/02/13 06:21:33;;;;;;;12.35;5.68;;;;;;;5.18;61.70;101416.28;5070890;28;20090;-37
2022/02/13 06:23:59;;;;;;;12.05;5.63;;;;;;;5.23;61.70;101411.47;5070884;28;20052;-37
2022/02/13 06:26:25;;;;;;;14.07;5.72;;;;;;;5.08;62.75;101406.53;5070419;28;20380;-38
2022/02/13 06:28:50;;;;;;;10.63;6.22;;;;;;;5.02;63.36;101403.53;5070691;28;20035;-38
2022/02/13 06:31:16;;;;;;;11.13;5.80;;;;;;;5.06;62.57;101403.16;5070498;28;20025;-37
2022/02/13 06:33:41;;;;;;;13.77;6.15;;;;;;;5.28;61.96;101402.19;5070454;28;20093;-38
2022/02/13 06:36:07;;;;;;;13.48;6.43;;;;;;;4.94;63.01;101405.97;5070554;28;20028;-39
2022/02/13 06:38:33;;;;;;;11.00;6.07;;;;;;;5.12;62.75;101399.16;5064599;28;20388;-38
2022/02/13 06:40:59;;;;;;;11.15;6.53;;;;;;;5.35;61.50;101405.19;5031844;28;20024;-48
2022/02/13 06:43:24;;;;;;;12.15;6.43;;;;;;;5.40;61.40;101413.53;5070142;28;20046;-50
2022/02/13 06:45:50;;;;;;;11.43;6.43;;;;;;;5.40;61.85;101412.69;5070013;28;20040;-49
2022/02/13 06:48:15;;;;;;;11.77;6.80;;;;;;;5.44;61.67;101407.03;5070412;28;20027;-47
2022/02/13 06:50:41;;;;;;;11.70;6.65;;;;;;;5.24;62.37;101405.25;5070469;28;20061;-52
2022/02/13 06:53:06;;;;;;;13.82;6.63;;;;;;;5.09;62.70;101408.19;5070409;28;20062;-49
2022/02/13 06:55:32;;;;;;;13.05;6.80;;;;;;;5.39;62.42;101406.59;5070291;28;20035;-51
2022/02/13 06:57:57;;;;;;;18.50;7.30;;;;;;;5.61;61.73;101396.84;5070352;28;20070;-48
2022/02/13 07:00:23;;;;;;;13.70;7.10;;;;;;;6.19;59.66;101402.41;5070543;28;20078;-49
2022/02/13 07:02:48;;;;;;;16.23;6.88;;;;;;;5.63;61.02;101400.19;5069989;28;20028;-49
2022/02/13 07:05:14;;;;;;;11.10;6.25;;;;;;;5.38;62.00;101402.25;5069736;28;20020;-51
2022/02/13 07:07:39;;;;;;;12.10;5.68;;;;;;;5.43;62.55;101405.38;5070299;28;20437;-49
2022/02/13 07:10:06;;;;;;;12.63;6.28;;;;;;;5.16;62.54;101383.91;5070021;28;20093;-48
2022/02/13 07:12:32;;;;;;;12.65;6.15;;;;;;;5.72;62.03;101399.41;5067506;28;20021;-48
2022/02/13 07:14:57;;;;;;;12.63;5.43;;;;;;;5.47;62.37;101401.50;5069453;28;20031;-48
2022/02/13 07:17:24;;;;;;;15.40;7.40;;;;;;;5.61;62.28;101387.09;5069863;28;20078;-50
2022/02/13 07:19:50;;;;;;;12.10;6.75;;;;;;;5.72;61.70;101393.28;5069624;28;20024;-49
2022/02/13 07:22:15;;;;;;;8.88;5.03;;;;;;;6.17;59.96;101383.22;5050290;28;20029;-51
2022/02/13 07:24:40;;;;;;;9.65;5.65;;;;;;;6.41;59.21;101388.13;5059860;28;20027;-48
2022/02/13 07:27:07;;;;;;;8.50;4.88;;;;;;;6.24;59.07;101388.78;5069490;28;20024;-49
2022/02/13 07:29:34;;;;;;;9.25;4.80;;;;;;;5.63;61.03;101389.63;5068620;28;20430;-50
2022/02/13 07:31:59;;;;;;;11.38;5.22;;;;;;;5.80;61.33;101391.66;5070025;28;20025;-52
2022/02/13 07:34:25;;;;;;;9.65;5.28;;;;;;;6.11;60.10;101389.06;5070116;28;20055;-48
2022/02/13 07:36:54;;;;;;;7.78;4.60;;;;;;;5.85;60.16;101386.81;5070132;28;20691;-49
2022/02/13 07:39:20;;;;;;;10.05;4.85;;;;;;;5.66;61.31;101384.91;5070366;28;20028;-50
2022/02/13 07:41:46;;;;;;;7.93;4.57;;;;;;;5.98;60.84;101391.09;5070250;28;20463;-51
2022/02/13 07:44:11;;;;;;;10.52;4.22;;;;;;;6.00;59.80;101381.22;5070006;28;20021;-49
2022/02/13 07:46:37;;;;;;;11.43;4.97;;;;;;;5.83;60.61;101386.13;5059661;28;20423;-51
2022/02/13 07:49:05;;;;;;;7.97;4.50;;;;;;;5.79;60.15;101373.31;5049893;28;20057;-50
2022/02/13 07:51:32;;;;;;;9.27;4.75;;;;;;;5.96;60.68;101379.78;5050026;28;20030;-48
2022/02/13 07:53:58;;;;;;;7.63;4.60;;;;;;;5.95;60.06;101373.66;5049568;28;20027;-48
2022/02/13 07:56:23;;;;;;;9.85;4.22;;;;;;;5.65;61.22;101379.75;5065754;28;20103;-49
2022/02/13 07:58:49;;;;;;;8.18;4.32;;;;;;;5.85;60.49;101373.59;5069623;28;20043;-49
2022/02/13 08:01:17;;;;;;;7.68;4.22;;;;;;;5.74;60.99;101376.34;5064530;28;20408;-50
2022/02/13 08:03:43;;;;;;;10.13;4.82;;;;;;;6.05;59.91;101369.28;5049749;28;20021;-50
2022/02/13 08:06:09;;;;;;;10.10;5.13;;;;;;;6.10;59.75;101371.50;5049720;28;20057;-51
2022/02/13 08:08:36;;;;;;;10.10;5.22;;;;;;;5.80;60.31;101373.16;5049987;28;20029;-52
2022/02/13 08:11:03;;;;;;;8.27;4.82;;;;;;;5.70;60.28;101371.47;5049824;28;20492;-48
2022/02/13 08:13:29;;;;;;;9.77;5.20;;;;;;;5.66;60.87;101368.25;5049677;28;20067;-49
2022/02/13 08:15:55;;;;;;;9.60;4.80;;;;;;;5.88;60.49;101367.22;5050582;28;20393;-49
2022/02/13 08:18:20;;;;;;;11.00;4.80;;;;;;;5.42;61.78;101368.53;5053433;28;20029;-49
2022/02/13 08:20:46;;;;;;;8.50;4.60;;;;;;;5.62;61.94;101370.31;5053360;28;20032;-49
2022/02/13 08:23:12;;;;;;;9.00;4.40;;;;;;;5.86;59.95;101369.16;5053486;28;20460;-48
2022/02/13 08:25:39;;;;;;;8.98;4.70;;;;;;;6.41;58.48;101372.25;5053292;28;20384;-48
2022/02/13 08:28:05;;;;;;;8.73;4.57;;;;;;;6.41;58.65;101366.16;5053020;28;20024;-48
2022/02/13 08:30:30;;;;;;;8.57;4.20;;;;;;;6.59;57.31;101368.97;5052954;28;20025;-50
2022/02/13 08:32:58;;;;;;;9.80;4.30;;;;;;;6.22;58.63;101369.59;5052980;28;20040;-48
2022/02/13 08:35:24;;;;;;;9.88;4.65;;;;;;;6.42;58.24;101365.19;5053058;28;20082;-50
2022/02/13 08:37:50;;;;;;;8.80;4.40;;;;;;;7.22;56.49;101368.53;5052749;28;20079;-51
2022/02/13 08:40:15;;;;;;;9.30;4.90;;;;;;;7.00;56.50;101361.72;5052610;28;20032;-49
2022/02/13 08:42:41;;;;;;;6.78;4.18;;;;;;;6.80;56.73;101364.38;5052932;28;20037;-51
2022/02/13 08:45:07;;;;;;;6.82;3.88;;;;;;;7.05;55.37;101362.97;5059272;28;20073;-49
2022/02/13 08:47:32;;;;;;;7.88;3.65;;;;;;;7.01;55.90;101355.47;5072839;28;20444;-49
2022/02/13 08:49:58;;;;;;;8.07;3.65;;;;;;;6.80;56.28;101356.44;5072066;28;20578;-49
2022/02/13 08:52:23;;;;;;;8.07;3.83;;;;;;;6.64;56.81;101353.50;5072407;28;20035;-51
2022/02/13 08:54:49;;;;;;;8.73;3.67;;;;;;;6.76;56.58;101352.41;5072132;28;20423;-52
2022/02/13 08:57:14;;;;;;;10.18;3.80;;;;;;;6.77;56.85;101354.06;5072149;28;20029;-51
2022/02/13 08:59:40;;;;;;;7.40;4.10;;;;;;;6.82;56.53;101337.78;5072189;28;20032;-51
2022/02/13 09:02:05;;;;;;;6.88;3.83;;;;;;;6.98;56.02;101343.31;5072603;28;20024;-48
2022/02/13 09:04:31;;;;;;;6.97;3.80;;;;;;;6.77;56.13;101345.28;5070736;28;20416;-48
2022/02/13 09:07:00;;;;;;;7.40;3.58;;;;;;;6.68;56.88;101346.13;5072257;28;20060;-49
2022/02/13 09:09:26;;;;;;;6.90;3.65;;;;;;;7.10;55.43;101343.16;5072125;28;20020;-48
2022/02/13 09:11:52;;;;;;;7.43;3.85;;;;;;;7.10;55.18;101330.78;5071943;28;20051;-48
2022/02/13 09:14:17;;;;;;;7.93;3.60;;;;;;;7.02;55.67;101325.34;5072102;28;20033;-51
2022/02/13 09:16:43;;;;;;;8.75;3.55;;;;;;;6.83;55.69;101331.50;5072003;28;20028;-48
2022/02/13 09:19:08;;;;;;;9.85;3.67;;;;;;;6.74;55.80;101329.69;5072014;28;20025;-51
2022/02/13 09:21:35;;;;;;;8.18;3.58;;;;;;;6.67;56.04;101331.25;5072099;28;20028;-49
2022/02/13 09:24:00;;;;;;;7.80;4.07;;;;;;;6.58;56.42;101322.31;5071753;28;20060;-51
2022/02/13 09:26:26;;;;;;;8.55;3.83;;;;;;;6.65;56.27;101318.97;5071513;28;20058;-51
2022/02/13 09:28:51;;;;;;;6.13;3.40;;;;;;;6.94;55.17;101314.66;5071808;28;20043;-49
2022/02/13 09:31:17;;;;;;;5.85;3.80;;;;;;;7.32;54.33;101307.59;5071701;28;20082;-51
2022/02/13 09:33:42;;;;;;;6.13;3.53;;;;;;;7.49;53.96;101308.66;5072099;28;20029;-51
2022/02/13 09:36:08;;;;;;;9.85;3.60;;;;;;;7.26;53.96;101310.81;5071847;28;20345;-49
2022/02/13 09:38:33;;;;;;;8.10;3.83;;;;;;;6.98;55.08;101314.22;5071656;28;20503;-48
2022/02/13 09:40:59;;;;;;;6.57;3.40;;;;;;;6.68;55.45;101306.44;5071720;28;20028;-48
2022/02/13 09:43:25;;;;;;;4.75;3.50;;;;;;;6.71;55.44;101308.81;5070249;28;20065;-47
2022/02/13 09:45:52;;;;;;;8.23;3.70;;;;;;;7.06;54.84;101297.63;5071062;28;20039;-51
2022/02/13 09:48:19;;;;;;;6.50;3.67;;;;;;;7.31;54.72;101304.13;5071564;28;20024;-48
2022/02/13 09:50:45;;;;;;;8.10;3.60;;;;;;;7.53;53.17;101292.31;5070495;28;20086;-49
2022/02/13 09:53:12;;;;;;;8.20;3.42;;;;;;;7.67;52.61;101284.88;5062684;28;20391;-51
2022/02/13 09:55:38;;;;;;;6.55;3.30;;;;;;;8.22;51.58;101277.72;5052929;28;20035;-49
2022/02/13 09:58:03;;;;;;;7.05;3.42;;;;;;;8.25;51.22;101279.22;5070799;28;20024;-49
2022/02/13 10:00:47;;;;;;;7.95;3.53;;;;;;;8.04;51.34;101276.84;5070935;28;20033;-48
2022/02/13 10:03:17;;;;;;;8.82;3.30;;;;;;;8.26;50.85;101269.44;5071031;28;20111;-51
2022/02/13 10:05:42;;;;;;;7.53;3.53;;;;;;;8.12;50.36;101268.97;5070932;28;20063;-49
2022/02/13 10:08:08;;;;;;;6.57;3.50;;;;;;;7.96;51.16;101251.09;5069141;28;20029;-48
2022/02/13 10:10:33;;;;;;;5.80;3.80;;;;;;;8.17;51.24;101253.47;5069322;28;20074;-50
2022/02/13 10:12:59;;;;;;;6.65;3.60;;;;;;;7.71;51.73;101254.44;5066891;28;20025;-50
2022/02/13 10:15:27;;;;;;;6.03;3.75;;;;;;;7.50;52.90;101239.66;5059964;28;20037;-38
2022/02/13 10:18:07;;;;;;;9.30;3.80;;;;;;;7.84;51.86;101233.72;5050832;28;20400;-38
2022/02/13 10:20:40;;;;;;;9.55;4.03;;;;;;;7.63;52.72;101234.84;5051076;28;20021;-37
2022/02/13 10:23:07;;;;;;;7.50;3.78;;;;;;;7.77;52.57;101228.19;5051158;28;20029;-38
2022/02/13 10:25:33;;;;;;;7.40;3.83;;;;;;;8.04;51.23;101229.13;5051339;28;20128;-38
2022/02/13 10:27:58;;;;;;;7.20;3.50;;;;;;;7.96;51.26;101224.59;5051291;28;20476;-38
2022/02/13 10:30:37;;;;;;;7.90;3.75;;;;;;;7.99;50.57;101218.13;5050910;28;20101;-38
2022/02/13 10:33:22;;;;;;;9.93;4.30;;;;;;;8.32;49.80;101214.00;5051064;28;20067;-38
2022/02/13 10:36:20;;;;;;;7.35;3.88;;;;;;;7.75;51.74;101211.63;5050600;28;20111;-38
2022/02/13 10:38:46;;;;;;;6.93;4.00;;;;;;;7.71;51.82;101204.94;5048763;28;20123;-38
2022/02/13 10:41:15;;;;;;;7.30;3.85;;;;;;;7.54;51.92;101203.06;5050106;28;20036;-37
2022/02/13 10:43:50;;;;;;;10.10;4.55;;;;;;;8.11;51.18;101197.53;5050888;28;20108;-37
2022/02/13 10:46:16;;;;;;;7.32;3.72;;;;;;;8.20;51.10;101193.97;5050922;28;20124;-37
2022/02/13 10:48:42;;;;;;;9.23;4.65;;;;;;;8.11;51.36;101184.28;5050884;28;20428;-38
2022/02/13 10:51:07;;;;;;;8.82;4.40;;;;;;;7.95;50.95;101196.41;5047244;28;20456;-37
2022/02/13 10:53:32;;;;;;;8.05;4.05;;;;;;;8.01;50.89;101176.41;5052659;28;20024;-38
2022/02/13 10:56:00;;;;;;;9.40;4.05;;;;;;;8.16;50.61;101179.34;5068915;28;20032;-37
2022/02/13 10:58:25;;;;;;;9.35;4.10;;;;;;;7.74;51.79;101186.09;5052846;28;20109;-38
2022/02/13 11:00:55;;;;;;;7.05;3.75;;;;;;;8.06;51.00;101170.66;5069339;28;20108;-37
2022/02/13 11:03:20;;;;;;;8.05;4.05;;;;;;;8.23;50.92;101177.78;5069444;28;20024;-37
2022/02/13 11:05:46;;;;;;;7.07;3.97;;;;;;;8.26;51.19;101163.34;5070208;28;20532;-38
2022/02/13 11:08:12;;;;;;;5.68;3.78;;;;;;;8.08;50.97;101160.72;5052345;28;20039;-38
2022/02/13 11:10:40;;;;;;;7.10;3.53;;;;;;;8.06;50.63;101181.25;5069381;28;20049;-50
2022/02/13 11:13:06;;;;;;;7.00;3.65;;;;;;;7.90;50.55;101150.13;5068915;28;20097;-51
2022/02/13 11:15:31;;;;;;;7.75;3.88;;;;;;;8.19;50.08;101152.53;5068969;28;20025;-48
2022/02/13 11:18:07;;;;;;;8.13;4.13;;;;;;;8.02;50.88;101155.03;5070015;28;20025;-48
2022/02/13 11:20:33;;;;;;;8.30;4.18;;;;;;;8.35;50.16;101149.19;5070387;28;20107;-48
2022/02/13 11:23:23;;;;;;;8.13;3.90;;;;;;;8.47;48.54;101145.31;5069298;28;20028;-48
2022/02/13 11:25:55;;;;;;;6.72;4.00;;;;;;;8.35;49.31;101139.38;5069902;28;20093;-48